Time;durP1;ratioP1;P1;durP2;ratioP2;P2;SDS_P1;SDS_P2;PMS_P1;PMS_P2;Temp;Humidity;BMP_temperature;BMP_pressure;BME280_temperature;BME280_humidity;BME280_pressure;Samples;Min_cycle;Max_cycle;Signal;HPM_P1;HPM_P2
2022/10/23 00:01:35;;;;;;;10.95;8.25;;;;;;;-148.88;100.00;75976.28;5054767;28;20052;-85
2022/10/23 00:04:06;;;;;;;15.68;8.88;;;;;;;-148.88;100.00;75978.31;5054895;28;20025;-85
2022/10/23 00:06:33;;;;;;;11.88;8.70;;;;;;;-148.88;100.00;75984.41;5054781;28;20027;-85
2022/10/23 00:08:59;;;;;;;14.23;9.07;;;;;;;-148.88;100.00;75992.53;5054613;28;20024;-86
2022/10/23 00:11:27;;;;;;;11.50;8.73;;;;;;;-148.88;100.00;75992.53;5053979;28;20399;-85
2022/10/23 00:13:54;;;;;;;14.00;9.38;;;;;;;-148.88;100.00;75996.59;5054666;28;20036;-85
2022/10/23 00:16:20;;;;;;;13.88;9.10;;;;;;;-148.88;100.00;75996.59;5055387;28;20020;-85
2022/10/23 00:18:45;;;;;;;14.38;9.02;;;;;;;-148.88;100.00;76004.72;5054214;28;20036;-85
2022/10/23 00:21:13;;;;;;;13.95;8.35;;;;;;;-148.88;100.00;76000.66;5053828;28;20029;-85
2022/10/23 00:23:39;;;;;;;11.85;8.43;;;;;;;-148.88;100.00;75996.59;5053801;28;20051;-85
2022/10/23 00:26:07;;;;;;;10.55;7.93;;;;;;;-148.88;100.00;75996.59;5054711;28;20037;-85
2022/10/23 00:28:33;;;;;;;10.93;8.52;;;;;;;-148.88;100.00;76000.66;5053631;28;20395;-85
2022/10/23 00:31:02;;;;;;;13.68;9.00;;;;;;;-148.88;100.00;76004.72;5053672;28;20487;-85
2022/10/23 00:33:27;;;;;;;15.13;9.43;;;;;;;-148.88;100.00;76000.66;5053418;28;20394;-86
2022/10/23 00:35:53;;;;;;;14.27;9.65;;;;;;;-148.88;100.00;76000.66;5053346;28;20017;-86
2022/10/23 00:38:18;;;;;;;13.45;9.13;;;;;;;-148.88;100.00;76012.84;5053778;28;20017;-85
2022/10/23 00:40:45;;;;;;;12.80;8.68;;;;;;;-148.88;100.00;76025.03;5053553;28;20025;-85
2022/10/23 00:43:24;;;;;;;14.48;8.57;;;;;;;-148.88;100.00;76023.00;5053331;28;20391;-84
2022/10/23 00:45:49;;;;;;;15.70;9.63;;;;;;;-148.88;100.00;76020.97;5053281;28;20032;-85
2022/10/23 00:48:15;;;;;;;16.60;8.60;;;;;;;-148.88;100.00;76029.09;5053232;28;20024;-86
2022/10/23 00:50:42;;;;;;;14.45;8.73;;;;;;;-148.88;100.00;76020.97;5054288;28;20104;-85
2022/10/23 00:53:09;;;;;;;12.55;8.75;;;;;;;-148.88;100.00;76020.97;5054517;28;20487;-85
2022/10/23 00:55:35;;;;;;;13.13;8.55;;;;;;;-148.88;100.00;76027.06;5052997;28;20170;-85
2022/10/23 00:58:00;;;;;;;14.13;8.70;;;;;;;-148.88;100.00;76035.19;5053369;28;20120;-85
2022/10/23 01:00:40;;;;;;;14.00;8.27;;;;;;;-148.88;100.00;76041.28;5053523;28;20057;-85
2022/10/23 01:03:05;;;;;;;15.65;8.32;;;;;;;-148.88;100.00;76049.41;5053109;28;20024;-85
2022/10/23 01:05:39;;;;;;;12.27;8.55;;;;;;;-148.88;100.00;76049.41;5053416;28;20104;-86
2022/10/23 01:08:12;;;;;;;12.85;8.27;;;;;;;-148.88;100.00;76049.41;5052994;28;20031;-85
2022/10/23 01:10:48;;;;;;;12.45;8.10;;;;;;;-148.88;100.00;76037.22;5054253;28;20024;-85
2022/10/23 01:13:22;;;;;;;11.82;7.82;;;;;;;-148.88;100.00;76033.16;5051908;28;20079;-85
2022/10/23 01:16:07;;;;;;;13.25;8.23;;;;;;;-148.88;100.00;76029.09;5054256;28;20025;-85
2022/10/23 01:18:47;;;;;;;12.45;7.80;;;;;;;-148.88;100.00;76037.22;5053081;28;20040;-85
2022/10/23 01:21:22;;;;;;;13.38;8.52;;;;;;;-148.88;100.00;76041.28;5052620;28;20390;-85
2022/10/23 01:24:07;;;;;;;15.50;8.18;;;;;;;-148.88;100.00;76041.28;5052997;28;20017;-85
2022/10/23 01:26:48;;;;;;;11.52;8.68;;;;;;;-148.88;100.00;76041.28;5073002;22;20039;-77
2022/10/23 01:29:28;;;;;;;13.18;8.13;;;;;;;-148.88;100.00;76047.38;5073761;28;20025;-77
2022/10/23 01:32:14;;;;;;;15.10;8.68;;;;;;;-148.88;100.00;76055.50;5073555;28;20055;-77
2022/10/23 01:35:01;;;;;;;15.65;8.90;;;;;;;-148.88;100.00;76053.47;5072452;28;20363;-77
2022/10/23 01:37:33;;;;;;;14.00;9.00;;;;;;;-148.88;100.00;76061.59;5073644;28;20027;-77
2022/10/23 01:40:02;;;;;;;14.48;8.95;;;;;;;-148.88;100.00;76049.41;5073647;28;20498;-77
2022/10/23 01:42:35;;;;;;;13.88;8.98;;;;;;;-148.88;100.00;76059.56;5071873;28;20025;-77
2022/10/23 01:45:08;;;;;;;13.85;9.32;;;;;;;-148.88;100.00;76049.41;5073289;28;20482;-77
2022/10/23 01:47:34;;;;;;;11.10;8.63;;;;;;;-148.88;100.00;76057.53;5073128;28;20115;-77
2022/10/23 01:50:02;;;;;;;13.27;8.95;;;;;;;-148.88;100.00;76063.63;5071667;28;20028;-77
2022/10/23 01:52:27;;;;;;;13.40;9.18;;;;;;;-148.88;100.00;76065.66;5072845;28;20039;-77
2022/10/23 01:54:57;;;;;;;14.25;9.07;;;;;;;-148.88;100.00;76061.59;5071647;28;20025;-77
2022/10/23 01:57:26;;;;;;;15.57;9.10;;;;;;;-148.88;100.00;76069.72;5071677;28;20021;-77
2022/10/23 01:59:59;;;;;;;15.55;9.40;;;;;;;-148.88;100.00;76073.78;5072866;28;20399;-77
2022/10/23 02:02:27;;;;;;;19.58;10.15;;;;;;;-148.88;100.00;76073.78;5071572;28;20433;-77
2022/10/23 02:05:19;;;;;;;14.63;9.52;;;;;;;-148.88;100.00;76063.63;5072020;28;20031;-77
2022/10/23 02:07:44;;;;;;;16.98;10.00;;;;;;;-148.88;100.00;76051.44;5072721;28;20044;-77
2022/10/23 02:10:14;;;;;;;16.83;10.82;;;;;;;-148.88;100.00;76059.56;5072784;28;20023;-77
2022/10/23 02:12:53;;;;;;;16.60;10.57;;;;;;;-148.88;100.00;76065.66;5071449;28;20478;-77
2022/10/23 02:15:29;;;;;;;18.02;11.85;;;;;;;-148.88;100.00;76069.72;5071745;28;20386;-77
2022/10/23 02:18:17;;;;;;;16.60;12.48;;;;;;;-148.88;100.00;76073.78;5073075;28;20028;-77
2022/10/23 02:20:47;;;;;;;21.52;12.50;;;;;;;-148.88;100.00;76069.72;5072873;28;20028;-77
2022/10/23 02:23:36;;;;;;;19.67;12.43;;;;;;;-148.88;100.00;76069.72;5072772;28;20016;-77
2022/10/23 02:26:01;;;;;;;18.42;11.77;;;;;;;-148.88;100.00;76073.78;5072441;28;20451;-77
2022/10/23 02:28:37;;;;;;;17.25;12.02;;;;;;;-148.88;100.00;76085.97;5071310;28;20035;-77
2022/10/23 02:31:07;;;;;;;20.95;12.38;;;;;;;-148.88;100.00;76077.84;5072849;28;20024;-77
2022/10/23 02:33:34;;;;;;;17.27;11.48;;;;;;;-148.88;100.00;76085.97;5072831;28;20039;-78
2022/10/23 02:36:00;;;;;;;16.08;11.20;;;;;;;-148.88;100.00;76077.84;5072618;28;20024;-77
2022/10/23 02:38:36;;;;;;;17.60;11.35;;;;;;;-148.88;100.00;76071.75;5071313;28;20024;-77
2022/10/23 02:41:24;;;;;;;17.10;10.70;;;;;;;-148.88;100.00;76077.84;5072825;28;20033;-77
2022/10/23 02:44:09;;;;;;;18.15;10.73;;;;;;;-148.88;100.00;76061.59;5072916;28;20021;-78
2022/10/23 02:47:11;;;;;;;16.52;11.25;;;;;;;-148.88;100.00;76077.84;5072803;28;20029;-77
2022/10/23 02:50:06;;;;;;;18.45;11.55;;;;;;;-148.88;100.00;76077.84;5072730;28;20028;-78
2022/10/23 02:52:44;;;;;;;18.95;12.32;;;;;;;-148.88;100.00;76077.84;5072138;28;20128;-77
2022/10/23 02:55:39;;;;;;;15.82;10.27;;;;;;;-148.88;100.00;76071.75;5073149;28;20028;-78
2022/10/23 02:58:23;;;;;;;18.73;11.63;;;;;;;-148.88;100.00;76069.72;5072330;28;20591;-78
2022/10/23 03:00:52;;;;;;;15.93;11.57;;;;;;;-148.88;100.00;76069.72;5072694;28;20024;-78
2022/10/23 03:03:40;;;;;;;15.48;10.93;;;;;;;-148.88;100.00;76073.78;5072396;28;20070;-77
2022/10/23 03:06:06;;;;;;;16.33;11.25;;;;;;;-148.88;100.00;76071.75;5070988;28;20064;-77
2022/10/23 03:08:41;;;;;;;18.83;11.55;;;;;;;-148.88;100.00;76067.69;5071044;28;20445;-77
2022/10/23 03:11:07;;;;;;;17.77;10.57;;;;;;;-148.88;100.00;76067.69;5072744;28;20375;-77
2022/10/23 03:13:32;;;;;;;16.42;10.85;;;;;;;-148.88;100.00;76077.84;5072686;28;20528;-78
2022/10/23 03:15:57;;;;;;;16.23;11.15;;;;;;;-148.88;100.00;76077.84;5071215;28;20025;-78
2022/10/23 03:18:22;;;;;;;17.17;10.90;;;;;;;-148.88;100.00;76067.69;5072371;28;20037;-77
2022/10/23 03:20:48;;;;;;;15.02;11.70;;;;;;;-148.88;100.00;76069.72;5072532;28;20123;-78
2022/10/23 03:23:13;;;;;;;16.13;10.63;;;;;;;-148.88;100.00;76077.84;5072279;28;20413;-77
2022/10/23 03:25:38;;;;;;;14.95;10.82;;;;;;;-148.88;100.00;76081.91;5072148;28;20078;-77
2022/10/23 03:28:04;;;;;;;15.18;11.18;;;;;;;-148.88;100.00;76083.94;5070823;28;20098;-77
2022/10/23 03:30:29;;;;;;;17.73;10.57;;;;;;;-148.88;100.00;76077.84;5072195;28;20028;-77
2022/10/23 03:32:54;;;;;;;17.13;10.93;;;;;;;-148.88;100.00;76083.94;5072167;28;20028;-77
2022/10/23 03:35:19;;;;;;;14.35;10.20;;;;;;;-148.88;100.00;76077.84;5072730;28;20082;-77
2022/10/23 03:37:45;;;;;;;17.50;10.77;;;;;;;-148.88;100.00;76085.97;5075624;28;20059;-77
2022/10/23 03:40:10;;;;;;;16.67;10.77;;;;;;;-148.88;100.00;76079.88;5075427;28;20066;-77
2022/10/23 03:42:36;;;;;;;13.95;9.90;;;;;;;-148.88;100.00;76077.84;5074204;28;20016;-77
2022/10/23 03:45:01;;;;;;;16.95;11.10;;;;;;;-148.88;100.00;76085.97;5074474;28;20161;-77
2022/10/23 03:47:29;;;;;;;14.63;10.35;;;;;;;-148.88;100.00;76100.19;5075366;28;20028;-77
2022/10/23 03:49:54;;;;;;;17.55;10.93;;;;;;;-148.88;100.00;76098.16;5075375;28;20077;-78
2022/10/23 03:52:19;;;;;;;18.20;11.10;;;;;;;-148.88;100.00;76094.09;5075157;28;20020;-77
2022/10/23 03:54:44;;;;;;;16.40;11.07;;;;;;;-148.88;100.00;76094.09;5074044;28;20123;-78
2022/10/23 03:57:10;;;;;;;13.38;10.60;;;;;;;-148.88;100.00;76096.13;5075364;28;20027;-77
2022/10/23 03:59:35;;;;;;;15.88;11.65;;;;;;;-148.88;100.00;76100.19;5075429;28;20025;-77
2022/10/23 04:02:01;;;;;;;16.33;11.07;;;;;;;-148.88;100.00;76104.25;5075088;28;20482;-77
2022/10/23 04:04:26;;;;;;;17.25;11.40;;;;;;;-148.88;100.00;76092.06;5075060;28;20020;-77
2022/10/23 04:06:51;;;;;;;22.98;12.13;;;;;;;-148.88;100.00;76090.03;5075209;28;20428;-77
2022/10/23 04:09:17;;;;;;;21.92;12.07;;;;;;;-148.88;100.00;76088.00;5073756;28;20052;-77
2022/10/23 04:11:42;;;;;;;16.35;12.30;;;;;;;-148.88;100.00;76098.16;5073615;28;20040;-77
2022/10/23 04:14:10;;;;;;;16.38;11.80;;;;;;;-148.88;100.00;76088.00;5074857;28;20032;-77
2022/10/23 04:16:36;;;;;;;17.48;11.95;;;;;;;-148.88;100.00;76090.03;5073525;28;20368;-78
2022/10/23 04:19:01;;;;;;;19.65;11.73;;;;;;;-148.88;100.00;76083.94;5074894;28;20028;-77
2022/10/23 04:21:26;;;;;;;17.17;11.95;;;;;;;-148.88;100.00;76094.09;5073486;28;20104;-77
2022/10/23 04:23:52;;;;;;;16.48;12.43;;;;;;;-148.88;100.00;76090.03;5074938;28;20471;-77
2022/10/23 04:26:17;;;;;;;16.88;11.60;;;;;;;-148.88;100.00;76094.09;5074518;28;20112;-77
2022/10/23 04:28:42;;;;;;;13.95;6.70;;;;;;;-148.88;100.00;76090.03;5073269;28;20502;-77
2022/10/23 04:31:08;;;;;;;16.98;11.57;;;;;;;-148.88;100.00;76085.97;5074607;28;20028;-77
2022/10/23 04:33:33;;;;;;;18.15;12.13;;;;;;;-148.88;100.00;76081.91;5074492;28;20089;-77
2022/10/23 04:35:58;;;;;;;18.08;11.63;;;;;;;-148.88;100.00;76081.91;5073230;28;20028;-77
2022/10/23 04:38:25;;;;;;;16.05;11.70;;;;;;;-148.88;100.00;76085.97;5073167;28;20494;-77
2022/10/23 04:40:52;;;;;;;15.07;10.95;;;;;;;-148.88;100.00;76085.97;5074243;28;20096;-77
2022/10/23 04:43:17;;;;;;;14.13;11.27;;;;;;;-148.88;100.00;76081.91;5074282;28;20052;-77
2022/10/23 04:45:43;;;;;;;15.25;11.90;;;;;;;-148.88;100.00;76090.03;5074653;28;20052;-78
2022/10/23 04:48:08;;;;;;;15.25;11.23;;;;;;;-148.88;100.00;76081.91;5075341;28;20027;-77
2022/10/23 04:50:33;;;;;;;19.10;11.70;;;;;;;-148.88;100.00;76085.97;5074368;28;20031;-77
2022/10/23 04:52:59;;;;;;;17.83;11.38;;;;;;;-148.88;100.00;76104.25;5074166;28;20025;-78
2022/10/23 04:55:24;;;;;;;14.38;9.90;;;;;;;-148.88;100.00;76108.31;5074042;28;20078;-77
2022/10/23 04:57:50;;;;;;;12.63;9.43;;;;;;;-148.88;100.00;76096.13;5074438;28;20021;-77
2022/10/23 05:00:17;;;;;;;17.30;10.00;;;;;;;-148.88;100.00;76098.16;5072768;28;20039;-77
2022/10/23 05:02:43;;;;;;;14.05;9.95;;;;;;;-148.88;100.00;76094.09;5056236;28;20028;-77
2022/10/23 05:05:09;;;;;;;16.55;9.90;;;;;;;-148.88;100.00;76098.16;5073827;28;20042;-77
2022/10/23 05:07:35;;;;;;;15.43;10.85;;;;;;;-148.88;100.00;76106.28;5073947;28;20020;-77
2022/10/23 05:10:02;;;;;;;13.90;10.25;;;;;;;-148.88;100.00;76108.31;5073961;28;20025;-77
2022/10/23 05:12:28;;;;;;;15.32;10.18;;;;;;;-148.88;100.00;76106.28;5073855;28;20089;-77
2022/10/23 05:14:53;;;;;;;13.30;9.73;;;;;;;-148.88;100.00;76098.16;5073820;28;20425;-77
2022/10/23 05:17:25;;;;;;;14.85;10.55;;;;;;;-148.88;100.00;76102.22;5072433;28;20027;-77
2022/10/23 05:19:56;;;;;;;15.63;10.07;;;;;;;-148.88;100.00;76085.97;5072932;28;20453;-77
2022/10/23 05:22:25;;;;;;;14.05;6.45;;;;;;;-148.88;100.00;76100.19;5072553;28;20024;-77
2022/10/23 05:24:52;;;;;;;15.52;10.73;;;;;;;-148.88;100.00;76094.09;5072470;28;20117;-77
2022/10/23 05:27:17;;;;;;;14.45;10.60;;;;;;;-148.88;100.00;76081.91;5073465;28;20034;-77
2022/10/23 05:29:43;;;;;;;12.85;9.85;;;;;;;-148.88;100.00;76077.84;5073516;28;20067;-78
2022/10/23 05:32:10;;;;;;;16.38;10.80;;;;;;;-148.88;100.00;76090.03;5072578;28;20025;-77
2022/10/23 05:34:37;;;;;;;13.57;5.70;;;;;;;-148.88;100.00;76094.09;5073338;28;20111;-84
2022/10/23 05:37:06;;;;;;;17.15;10.82;;;;;;;-148.88;100.00;76092.06;5072902;28;20111;-77
2022/10/23 05:39:32;;;;;;;19.23;11.48;;;;;;;-148.88;100.00;76081.91;5073191;28;20483;-77
2022/10/23 05:41:58;;;;;;;17.15;11.35;;;;;;;-148.88;100.00;76092.06;5073088;28;20031;-77
2022/10/23 05:44:23;;;;;;;14.55;6.60;;;;;;;-148.88;100.00;76094.09;5073034;28;20024;-78
2022/10/23 05:46:48;;;;;;;38.90;13.40;;;;;;;-148.88;100.00;76090.03;5073123;28;20063;-78
2022/10/23 05:49:14;;;;;;;22.85;12.07;;;;;;;-148.88;100.00;76085.97;5073082;28;20097;-79
2022/10/23 05:51:39;;;;;;;26.67;12.32;;;;;;;-148.88;100.00;76085.97;5073063;28;20021;-77
2022/10/23 05:54:07;;;;;;;31.73;12.68;;;;;;;-148.88;100.00;76085.97;5071773;28;20047;-77
2022/10/23 05:56:33;;;;;;;22.38;13.18;;;;;;;-148.88;100.00;76094.09;5072926;28;20453;-77
2022/10/23 05:58:59;;;;;;;15.70;7.82;;;;;;;-148.88;100.00;76094.09;5072651;28;20028;-77
2022/10/23 06:01:24;;;;;;;20.05;12.82;;;;;;;-148.88;100.00;76090.03;5073865;28;20031;-77
2022/10/23 06:03:50;;;;;;;20.38;12.00;;;;;;;-148.88;100.00;76077.84;5073259;28;20079;-77
2022/10/23 06:06:15;;;;;;;34.03;13.43;;;;;;;-148.88;100.00;76077.84;5073102;28;20020;-77
2022/10/23 06:08:41;;;;;;;11.90;6.95;;;;;;;-148.88;100.00;76073.78;5071666;28;20489;-80
2022/10/23 06:11:12;;;;;;;15.68;6.70;;;;;;;-148.88;100.00;76071.75;5071623;28;20058;-77
2022/10/23 06:13:38;;;;;;;14.30;10.32;;;;;;;-148.88;100.00;76063.63;5071540;28;20039;-78
2022/10/23 06:16:10;;;;;;;16.80;11.15;;;;;;;-148.88;100.00;76057.53;5072729;28;20032;-77
2022/10/23 06:18:36;;;;;;;15.93;6.22;;;;;;;-148.88;100.00;76067.69;5072371;28;20024;-77
2022/10/23 06:21:01;;;;;;;17.52;11.88;;;;;;;-148.88;100.00;76055.50;5071648;28;20027;-77
2022/10/23 06:23:29;;;;;;;16.48;11.57;;;;;;;-148.88;100.00;76045.34;5072134;28;20017;-78
2022/10/23 06:25:55;;;;;;;20.27;12.35;;;;;;;-148.88;100.00;76053.47;5074071;28;20501;-78
2022/10/23 06:28:20;;;;;;;17.02;12.20;;;;;;;-148.88;100.00;76055.50;5072946;28;20033;-78
2022/10/23 06:30:46;;;;;;;15.52;6.82;;;;;;;-148.88;100.00;76057.53;5071212;28;20048;-77
2022/10/23 06:33:11;;;;;;;17.98;12.30;;;;;;;-148.88;100.00;76051.44;5071748;28;20120;-77
2022/10/23 06:35:36;;;;;;;18.88;12.75;;;;;;;-148.88;100.00;76059.56;5073104;28;20029;-78
2022/10/23 06:38:01;;;;;;;18.55;12.05;;;;;;;-148.88;100.00;76053.47;5072610;28;20016;-77
2022/10/23 06:40:27;;;;;;;18.27;12.50;;;;;;;-148.88;100.00;76047.38;5072471;28;20024;-77
2022/10/23 06:42:54;;;;;;;18.73;13.13;;;;;;;-148.88;100.00;76039.25;5072531;28;20020;-77
2022/10/23 06:45:20;;;;;;;18.30;11.75;;;;;;;-148.88;100.00;76037.22;5072959;28;20035;-77
2022/10/23 06:47:45;;;;;;;17.80;11.15;;;;;;;-148.88;100.00;76027.06;5071334;28;20028;-77
2022/10/23 06:50:10;;;;;;;18.15;12.00;;;;;;;-148.88;100.00;76027.06;5071049;28;20025;-77
2022/10/23 06:52:35;;;;;;;17.88;12.50;;;;;;;-148.88;100.00;76025.03;5071351;28;20141;-77
2022/10/23 06:55:01;;;;;;;12.38;6.13;;;;;;;-148.88;100.00;76025.03;5072744;28;20555;-78
2022/10/23 06:57:26;;;;;;;16.02;11.50;;;;;;;-148.88;100.00;76012.84;5073248;28;20107;-78
2022/10/23 06:59:51;;;;;;;19.73;13.07;;;;;;;-148.88;100.00;76014.88;5073068;28;20455;-78
2022/10/23 07:02:17;;;;;;;17.20;12.73;;;;;;;-148.88;100.00;76012.84;5071171;28;20023;-77
2022/10/23 07:04:42;;;;;;;19.33;12.68;;;;;;;-148.88;100.00;76025.03;5072517;28;20112;-77
2022/10/23 07:07:07;;;;;;;22.27;12.52;;;;;;;-148.88;100.00;76018.94;5071178;28;20016;-78
2022/10/23 07:09:34;;;;;;;21.92;11.95;;;;;;;-148.88;100.00;76014.88;5072933;28;20490;-78
2022/10/23 07:12:00;;;;;;;19.42;13.82;;;;;;;-148.88;100.00;76018.94;5075352;28;20394;-77
2022/10/23 07:14:25;;;;;;;18.13;12.80;;;;;;;-148.88;100.00;76012.84;5076860;28;20411;-78
2022/10/23 07:16:50;;;;;;;20.33;13.93;;;;;;;-148.88;100.00;76012.84;5074912;28;20070;-78
2022/10/23 07:19:16;;;;;;;15.80;11.88;;;;;;;-148.88;100.00;76008.78;5076442;28;20482;-77
2022/10/23 07:21:41;;;;;;;18.10;12.80;;;;;;;-148.88;100.00;76000.66;5074562;28;20021;-77
2022/10/23 07:24:06;;;;;;;19.67;12.85;;;;;;;-148.88;100.00;75994.56;5074471;28;20020;-77
2022/10/23 07:26:32;;;;;;;19.10;12.43;;;;;;;-148.88;100.00;75988.47;5074392;28;20414;-77
2022/10/23 07:28:57;;;;;;;20.73;13.07;;;;;;;-148.88;100.00;75980.34;5076233;28;20051;-77
2022/10/23 07:31:24;;;;;;;19.33;12.57;;;;;;;-148.88;100.00;75976.28;5075813;28;20111;-77
2022/10/23 07:33:50;;;;;;;21.65;12.73;;;;;;;-148.88;100.00;75970.19;5075615;28;20485;-78
2022/10/23 07:36:16;;;;;;;22.13;13.40;;;;;;;-148.88;100.00;75972.22;5076970;28;20033;-77
2022/10/23 07:38:41;;;;;;;20.00;13.13;;;;;;;-148.88;100.00;75958.00;5077957;28;20059;-79
2022/10/23 07:41:07;;;;;;;18.83;13.20;;;;;;;-148.88;100.00;75951.91;5075209;28;20028;-78
2022/10/23 07:43:34;;;;;;;22.00;12.75;;;;;;;-148.88;100.00;75937.69;5076062;28;20025;-77
2022/10/23 07:45:59;;;;;;;19.88;12.73;;;;;;;-148.88;100.00;75943.78;5076864;28;20021;-77
2022/10/23 07:48:26;;;;;;;19.20;12.75;;;;;;;-148.88;100.00;75927.53;5076817;28;20058;-78
2022/10/23 07:50:53;;;;;;;19.83;13.50;;;;;;;-148.88;100.00;75919.41;5075609;28;20021;-77
2022/10/23 07:53:24;;;;;;;22.02;14.02;;;;;;;-148.88;100.00;75913.31;5074074;28;20035;-77
2022/10/23 07:56:00;;;;;;;23.80;12.70;;;;;;;-148.88;100.00;75907.22;5075515;28;20451;-77
2022/10/23 07:58:27;;;;;;;18.65;12.98;;;;;;;-148.88;100.00;75903.16;5075458;28;20031;-77
2022/10/23 08:01:03;;;;;;;18.40;13.27;;;;;;;-148.88;100.00;75884.88;5076203;28;20036;-77
2022/10/23 08:03:31;;;;;;;20.98;12.98;;;;;;;-148.88;100.00;75890.97;5074709;28;20052;-78
2022/10/23 08:05:57;;;;;;;20.00;13.13;;;;;;;-148.88;100.00;75882.84;5075425;28;20020;-77
2022/10/23 08:08:24;;;;;;;23.48;12.57;;;;;;;-148.88;100.00;75874.72;5075866;28;20032;-78
2022/10/23 08:10:51;;;;;;;23.35;13.52;;;;;;;-148.88;100.00;75866.59;5074794;28;20074;-78
2022/10/23 08:13:19;;;;;;;20.48;13.70;;;;;;;-148.88;100.00;75862.53;5074816;28;20437;-78
2022/10/23 08:15:46;;;;;;;19.23;12.35;;;;;;;-148.88;100.00;75840.19;5076473;28;20021;-77
2022/10/23 08:18:11;;;;;;;19.38;13.27;;;;;;;-148.88;100.00;75838.16;5075620;28;20028;-78
2022/10/23 08:20:45;;;;;;;21.85;13.40;;;;;;;-148.88;100.00;75830.03;5074957;28;20305;-77
2022/10/23 08:23:11;;;;;;;;;;;;;;;-148.88;100.00;75813.78;5076243;28;20043;-77
2022/10/23 08:25:38;;;;;;;20.08;13.25;;;;;;;-148.88;100.00;75797.53;5076065;28;19909;-78
2022/10/23 08:28:05;;;;;;;18.80;13.30;;;;;;;-148.88;100.00;75785.34;5074562;28;20096;-78
2022/10/23 08:30:30;;;;;;;18.83;12.68;;;;;;;-148.88;100.00;75767.06;5075940;28;20028;-78
2022/10/23 08:32:56;;;;;;;20.00;13.07;;;;;;;-148.88;100.00;75756.91;5074380;28;20024;-78
2022/10/23 08:35:21;;;;;;;17.70;12.63;;;;;;;-148.88;100.00;75738.63;5076329;28;20028;-78
2022/10/23 08:37:47;;;;;;;18.83;13.05;;;;;;;-148.88;100.00;75736.59;5059367;28;20033;-77
2022/10/23 08:40:18;;;;;;;19.70;12.70;;;;;;;-148.88;100.00;75734.56;5053913;28;20025;-77
2022/10/23 08:42:50;;;;;;;16.75;12.73;;;;;;;-148.88;100.00;75728.47;5053489;28;20036;-78
2022/10/23 08:45:16;;;;;;;20.17;13.32;;;;;;;-148.88;100.00;75720.34;5057775;28;20032;-78
2022/10/23 08:47:48;;;;;;;20.75;13.32;;;;;;;-148.88;100.00;75710.19;5065723;28;20116;-77
2022/10/23 08:50:28;;;;;;;20.15;14.23;;;;;;;-148.88;100.00;75695.97;5060037;28;20459;-78
2022/10/23 08:53:03;;;;;;;18.40;12.52;;;;;;;-148.88;100.00;75679.72;5061064;28;20035;-77
2022/10/23 08:55:34;;;;;;;20.50;12.20;;;;;;;-148.88;100.00;75663.47;5066309;28;20395;-78
2022/10/23 08:58:22;;;;;;;23.42;12.93;;;;;;;-148.88;100.00;75657.38;5060432;28;20420;-78
2022/10/23 09:00:48;;;;;;;17.35;11.85;;;;;;;-148.88;100.00;75651.28;5063301;28;20036;-78
2022/10/23 09:03:15;;;;;;;18.90;12.45;;;;;;;-148.88;100.00;75635.03;5059726;28;20380;-78
2022/10/23 09:06:02;;;;;;;18.48;12.15;;;;;;;-148.88;100.00;75635.03;5055514;28;20028;-78
2022/10/23 09:08:55;;;;;;;21.08;12.93;;;;;;;-148.88;100.00;75630.97;5063686;28;20071;-77
2022/10/23 09:11:29;;;;;;;22.98;15.13;;;;;;;-148.88;100.00;75614.72;5062599;28;20024;-77
2022/10/23 09:14:20;;;;;;;20.95;14.20;;;;;;;-148.88;100.00;75606.59;5063485;28;20021;-77
2022/10/23 09:17:04;;;;;;;16.15;11.77;;;;;;;-148.88;100.00;75590.34;5059341;28;20056;-78
2022/10/23 09:19:30;;;;;;;24.42;15.32;;;;;;;-148.88;100.00;75578.19;5058682;28;20020;-78
2022/10/23 09:21:57;;;;;;;16.00;11.60;;;;;;;-148.88;100.00;75566.00;5058005;28;20771;-77
2022/10/23 09:24:24;;;;;;;22.67;13.00;;;;;;;-148.88;100.00;75561.94;5071190;28;20078;-77
2022/10/23 09:26:52;;;;;;;20.15;12.73;;;;;;;-148.88;100.00;75555.84;5066763;28;20033;-78
2022/10/23 09:29:28;;;;;;;19.30;13.00;;;;;;;-148.88;100.00;75547.72;5051495;28;20025;-78
2022/10/23 09:31:56;;;;;;;17.15;11.23;;;;;;;-148.88;100.00;75533.50;5051389;28;20036;-76
2022/10/23 09:34:24;;;;;;;16.20;9.98;;;;;;;-148.88;100.00;75525.38;5051962;28;20029;-77
2022/10/23 09:36:58;;;;;;;18.55;9.35;;;;;;;-148.88;100.00;75509.13;5068408;28;20182;-77
2022/10/23 09:39:34;;;;;;;14.10;8.85;;;;;;;-148.88;100.00;75492.88;5063275;28;20020;-78
2022/10/23 09:42:01;;;;;;;14.70;6.82;;;;;;;-148.88;100.00;75476.63;5056247;28;20048;-78
2022/10/23 09:44:32;;;;;;;9.18;6.00;;;;;;;-148.88;100.00;75462.41;5054919;28;20032;-78
2022/10/23 09:47:06;;;;;;;9.20;5.35;;;;;;;-148.88;100.00;75450.22;5059450;28;20483;-78
2022/10/23 09:49:33;;;;;;;11.73;5.10;;;;;;;-148.88;100.00;75431.94;5059423;28;20021;-79
2022/10/23 09:52:03;;;;;;;8.85;4.18;;;;;;;-148.88;100.00;75423.81;5056288;28;20029;-78
2022/10/23 09:54:32;;;;;;;10.23;4.72;;;;;;;-148.88;100.00;75403.50;5053924;28;20025;-80
2022/10/23 09:57:05;;;;;;;7.38;4.18;;;;;;;-148.88;100.00;75383.19;5054101;28;20021;-78
2022/10/23 09:59:32;;;;;;;4.93;3.47;;;;;;;-148.88;100.00;75371.00;5053778;28;20111;-78
2022/10/23 10:02:04;;;;;;;6.85;3.88;;;;;;;-148.88;100.00;75354.75;5054429;28;20029;-78
2022/10/23 10:04:38;;;;;;;8.68;3.90;;;;;;;-148.88;100.00;75338.50;5053199;28;20471;-78
2022/10/23 10:07:17;;;;;;;7.60;3.30;;;;;;;-148.88;100.00;75314.13;5055689;28;20036;-78
2022/10/23 10:09:43;;;;;;;5.88;3.15;;;;;;;-148.88;100.00;75285.69;5056407;28;20084;-78
2022/10/23 10:12:46;;;;;;;6.45;3.10;;;;;;;-148.88;100.00;75281.66;5055276;28;20053;-78
2022/10/23 10:15:16;;;;;;;5.45;2.80;;;;;;;-148.88;100.00;75269.47;5057707;28;20043;-78
2022/10/23 10:17:53;;;;;;;7.93;3.33;;;;;;;-148.88;100.00;75261.34;5056054;28;20025;-78
2022/10/23 10:20:24;;;;;;;4.90;2.70;;;;;;;-148.88;100.00;75251.19;5055595;28;20021;-78
2022/10/23 10:23:21;;;;;;;7.60;2.90;;;;;;;-148.88;100.00;75249.16;5056718;28;20025;-78
2022/10/23 10:26:03;;;;;;;7.90;2.92;;;;;;;-148.88;100.00;75241.03;5063830;28;20053;-78
2022/10/23 10:28:55;;;;;;;6.82;2.83;;;;;;;-148.88;100.00;75228.84;5055878;28;20028;-78
2022/10/23 10:31:56;;;;;;;6.57;2.47;;;;;;;-148.88;100.00;75228.84;5055677;28;20028;-79
2022/10/23 10:34:31;;;;;;;8.18;2.88;;;;;;;-148.88;100.00;75208.53;5057430;28;20029;-78
2022/10/23 10:37:17;;;;;;;6.32;2.58;;;;;;;-148.88;100.00;75196.34;5057127;28;20032;-79
2022/10/23 10:40:01;;;;;;;3.80;2.10;;;;;;;-148.88;100.00;75178.06;5057863;28;20028;-79
2022/10/23 10:42:29;;;;;;;6.05;2.85;;;;;;;-148.88;100.00;75167.91;5057149;28;20035;-79
2022/10/23 10:45:07;;;;;;;6.20;2.58;;;;;;;-148.88;100.00;75155.72;5058417;28;20025;-79
2022/10/23 10:47:41;;;;;;;7.68;2.78;;;;;;;-148.88;100.00;75157.75;5060582;28;20052;-78
2022/10/23 10:50:15;;;;;;;;;;;;;;;-148.88;100.00;75147.59;5058470;28;20044;-78
2022/10/23 10:52:44;;;;;;;3.80;2.15;;;;;;;-148.88;100.00;75145.56;5057249;28;19963;-79
2022/10/23 10:55:28;;;;;;;7.72;2.42;;;;;;;-148.88;100.00;75139.47;5057615;28;20024;-79
2022/10/23 10:57:59;;;;;;;5.97;1.98;;;;;;;-148.88;100.00;75123.22;5059396;28;20059;-78
2022/10/23 11:00:27;;;;;;;6.13;2.45;;;;;;;-148.88;100.00;75117.13;5059428;28;20025;-78
2022/10/23 11:02:59;;;;;;;4.90;2.38;;;;;;;-148.88;100.00;75106.97;5059724;28;20530;-79
2022/10/23 11:05:36;;;;;;;6.55;1.90;;;;;;;-148.88;100.00;75092.78;5060454;28;20029;-80
2022/10/23 11:08:10;;;;;;;5.40;1.98;;;;;;;-148.88;100.00;75072.47;5059366;28;20045;-80
2022/10/23 11:10:40;;;;;;;5.00;2.20;;;;;;;-148.88;100.00;75064.34;5061310;28;20033;-80
2022/10/23 11:13:05;;;;;;;8.55;2.40;;;;;;;-148.88;99.97;75046.06;5060237;28;20025;-79